sensor_id;sensor_type;location;lat;lon;timestamp;P1;durP1;ratioP1;P2;durP2;ratioP2
15393;SDS011;7795;47.986;11.868;2022-07-29T00:00:43;0.90;;;0.90;;
15393;SDS011;7795;47.986;11.868;2022-07-29T00:03:11;1.80;;;1.10;;
15393;SDS011;7795;47.986;11.868;2022-07-29T00:05:39;1.77;;;0.93;;
15393;SDS011;7795;47.986;11.868;2022-07-29T00:08:06;1.97;;;1.07;;
15393;SDS011;7795;47.986;11.868;2022-07-29T00:10:32;0.60;;;0.60;;
15393;SDS011;7795;47.986;11.868;2022-07-29T00:13:00;1.00;;;0.80;;
15393;SDS011;7795;47.986;11.868;2022-07-29T00:15:26;1.67;;;0.90;;
15393;SDS011;7795;47.986;11.868;2022-07-29T00:17:52;1.13;;;1.00;;
15393;SDS011;7795;47.986;11.868;2022-07-29T00:20:18;1.73;;;1.10;;
15393;SDS011;7795;47.986;11.868;2022-07-29T00:22:45;1.80;;;1.33;;
15393;SDS011;7795;47.986;11.868;2022-07-29T00:25:11;1.37;;;1.23;;
15393;SDS011;7795;47.986;11.868;2022-07-29T00:27:38;0.70;;;0.70;;
15393;SDS011;7795;47.986;11.868;2022-07-29T00:30:04;6.70;;;1.30;;
15393;SDS011;7795;47.986;11.868;2022-07-29T00:32:31;1.53;;;1.10;;
15393;SDS011;7795;47.986;11.868;2022-07-29T00:34:57;1.77;;;0.80;;
15393;SDS011;7795;47.986;11.868;2022-07-29T00:37:41;1.83;;;1.50;;
15393;SDS011;7795;47.986;11.868;2022-07-29T00:40:08;1.30;;;1.10;;
15393;SDS011;7795;47.986;11.868;2022-07-29T00:42:41;1.03;;;0.97;;
15393;SDS011;7795;47.986;11.868;2022-07-29T00:45:07;2.53;;;1.20;;
15393;SDS011;7795;47.986;11.868;2022-07-29T00:47:34;1.00;;;0.90;;
15393;SDS011;7795;47.986;11.868;2022-07-29T00:49:59;1.27;;;1.17;;
15393;SDS011;7795;47.986;11.868;2022-07-29T00:52:25;1.40;;;1.20;;
15393;SDS011;7795;47.986;11.868;2022-07-29T00:54:51;1.70;;;1.17;;
15393;SDS011;7795;47.986;11.868;2022-07-29T00:57:19;1.50;;;1.13;;
15393;SDS011;7795;47.986;11.868;2022-07-29T00:59:45;1.63;;;1.17;;
15393;SDS011;7795;47.986;11.868;2022-07-29T01:02:11;1.37;;;1.00;;
15393;SDS011;7795;47.986;11.868;2022-07-29T01:04:36;1.53;;;1.30;;
15393;SDS011;7795;47.986;11.868;2022-07-29T01:07:02;1.90;;;1.27;;
15393;SDS011;7795;47.986;11.868;2022-07-29T01:09:29;1.40;;;1.30;;
15393;SDS011;7795;47.986;11.868;2022-07-29T01:11:56;1.17;;;1.07;;
15393;SDS011;7795;47.986;11.868;2022-07-29T01:14:25;1.00;;;0.90;;
15393;SDS011;7795;47.986;11.868;2022-07-29T01:16:54;1.40;;;1.30;;
15393;SDS011;7795;47.986;11.868;2022-07-29T01:19:43;1.20;;;1.07;;
15393;SDS011;7795;47.986;11.868;2022-07-29T01:22:18;1.97;;;1.40;;
15393;SDS011;7795;47.986;11.868;2022-07-29T01:28:08;3.27;;;1.50;;
15393;SDS011;7795;47.986;11.868;2022-07-29T01:30:47;1.50;;;1.27;;
15393;SDS011;7795;47.986;11.868;2022-07-29T01:33:17;1.77;;;1.23;;
15393;SDS011;7795;47.986;11.868;2022-07-29T01:36:05;1.63;;;1.13;;
15393;SDS011;7795;47.986;11.868;2022-07-29T01:38:50;1.33;;;1.20;;
15393;SDS011;7795;47.986;11.868;2022-07-29T01:41:22;1.73;;;1.10;;
15393;SDS011;7795;47.986;11.868;2022-07-29T01:43:51;1.27;;;1.17;;
15393;SDS011;7795;47.986;11.868;2022-07-29T01:46:25;1.60;;;1.20;;
15393;SDS011;7795;47.986;11.868;2022-07-29T01:48:57;1.43;;;1.20;;
15393;SDS011;7795;47.986;11.868;2022-07-29T01:51:28;4.30;;;1.60;;
15393;SDS011;7795;47.986;11.868;2022-07-29T01:53:59;2.20;;;1.10;;
15393;SDS011;7795;47.986;11.868;2022-07-29T01:56:29;3.30;;;1.50;;
15393;SDS011;7795;47.986;11.868;2022-07-29T01:58:58;1.80;;;1.40;;
15393;SDS011;7795;47.986;11.868;2022-07-29T02:01:27;1.57;;;1.10;;
15393;SDS011;7795;47.986;11.868;2022-07-29T02:03:56;1.40;;;1.30;;
15393;SDS011;7795;47.986;11.868;2022-07-29T02:06:23;1.40;;;1.30;;
15393;SDS011;7795;47.986;11.868;2022-07-29T02:08:51;1.43;;;1.23;;
15393;SDS011;7795;47.986;11.868;2022-07-29T02:11:18;1.30;;;1.20;;
15393;SDS011;7795;47.986;11.868;2022-07-29T02:13:44;1.83;;;1.10;;
15393;SDS011;7795;47.986;11.868;2022-07-29T02:16:11;2.90;;;1.60;;
15393;SDS011;7795;47.986;11.868;2022-07-29T02:18:40;1.50;;;1.40;;
15393;SDS011;7795;47.986;11.868;2022-07-29T02:21:10;1.70;;;1.30;;
15393;SDS011;7795;47.986;11.868;2022-07-29T02:23:37;1.97;;;1.17;;
15393;SDS011;7795;47.986;11.868;2022-07-29T02:26:04;2.27;;;1.37;;
15393;SDS011;7795;47.986;11.868;2022-07-29T02:28:32;2.23;;;1.40;;
15393;SDS011;7795;47.986;11.868;2022-07-29T02:30:59;1.40;;;1.30;;
15393;SDS011;7795;47.986;11.868;2022-07-29T02:33:27;1.60;;;1.30;;
15393;SDS011;7795;47.986;11.868;2022-07-29T02:35:56;1.20;;;1.10;;
15393;SDS011;7795;47.986;11.868;2022-07-29T02:38:24;0.90;;;0.90;;
15393;SDS011;7795;47.986;11.868;2022-07-29T02:41:11;2.03;;;1.83;;
15393;SDS011;7795;47.986;11.868;2022-07-29T02:43:41;1.43;;;1.23;;
15393;SDS011;7795;47.986;11.868;2022-07-29T02:46:11;1.97;;;1.60;;
15393;SDS011;7795;47.986;11.868;2022-07-29T02:48:41;1.87;;;1.27;;
15393;SDS011;7795;47.986;11.868;2022-07-29T02:51:13;1.27;;;1.13;;
15393;SDS011;7795;47.986;11.868;2022-07-29T02:53:44;1.40;;;1.10;;
15393;SDS011;7795;47.986;11.868;2022-07-29T02:56:16;2.17;;;1.37;;
15393;SDS011;7795;47.986;11.868;2022-07-29T02:58:46;2.53;;;1.40;;
15393;SDS011;7795;47.986;11.868;2022-07-29T03:01:20;3.63;;;1.20;;
15393;SDS011;7795;47.986;11.868;2022-07-29T03:03:48;1.97;;;1.10;;
15393;SDS011;7795;47.986;11.868;2022-07-29T03:06:17;2.40;;;1.20;;
15393;SDS011;7795;47.986;11.868;2022-07-29T03:08:44;1.73;;;1.10;;
15393;SDS011;7795;47.986;11.868;2022-07-29T03:11:11;1.70;;;0.87;;
15393;SDS011;7795;47.986;11.868;2022-07-29T03:13:38;1.57;;;1.03;;
15393;SDS011;7795;47.986;11.868;2022-07-29T03:16:05;1.93;;;0.93;;
15393;SDS011;7795;47.986;11.868;2022-07-29T03:18:31;1.27;;;1.17;;
15393;SDS011;7795;47.986;11.868;2022-07-29T03:20:58;2.03;;;1.40;;
15393;SDS011;7795;47.986;11.868;2022-07-29T03:23:25;2.73;;;1.37;;
15393;SDS011;7795;47.986;11.868;2022-07-29T03:25:53;1.57;;;1.40;;
15393;SDS011;7795;47.986;11.868;2022-07-29T03:28:19;2.80;;;1.50;;
15393;SDS011;7795;47.986;11.868;2022-07-29T03:30:45;1.27;;;1.17;;
15393;SDS011;7795;47.986;11.868;2022-07-29T03:33:11;1.80;;;1.33;;
15393;SDS011;7795;47.986;11.868;2022-07-29T03:35:37;1.70;;;1.60;;
15393;SDS011;7795;47.986;11.868;2022-07-29T03:38:03;2.77;;;1.40;;
15393;SDS011;7795;47.986;11.868;2022-07-29T03:40:31;3.17;;;1.60;;
15393;SDS011;7795;47.986;11.868;2022-07-29T03:43:00;3.07;;;1.47;;
15393;SDS011;7795;47.986;11.868;2022-07-29T03:45:27;1.47;;;1.37;;
15393;SDS011;7795;47.986;11.868;2022-07-29T03:47:56;2.17;;;1.20;;
15393;SDS011;7795;47.986;11.868;2022-07-29T03:50:26;2.83;;;1.80;;
15393;SDS011;7795;47.986;11.868;2022-07-29T03:52:53;8.77;;;7.87;;
15393;SDS011;7795;47.986;11.868;2022-07-29T03:55:19;13.13;;;11.83;;
15393;SDS011;7795;47.986;11.868;2022-07-29T03:57:47;12.00;;;10.90;;
15393;SDS011;7795;47.986;11.868;2022-07-29T04:00:14;12.20;;;11.03;;
15393;SDS011;7795;47.986;11.868;2022-07-29T04:02:40;14.93;;;13.57;;
15393;SDS011;7795;47.986;11.868;2022-07-29T04:05:11;12.37;;;11.27;;
15393;SDS011;7795;47.986;11.868;2022-07-29T04:07:37;7.73;;;6.93;;
15393;SDS011;7795;47.986;11.868;2022-07-29T04:10:03;4.67;;;4.20;;
15393;SDS011;7795;47.986;11.868;2022-07-29T04:12:29;4.83;;;3.07;;
15393;SDS011;7795;47.986;11.868;2022-07-29T04:14:56;4.10;;;2.33;;
15393;SDS011;7795;47.986;11.868;2022-07-29T04:17:22;1.83;;;1.73;;
15393;SDS011;7795;47.986;11.868;2022-07-29T04:19:48;2.20;;;1.80;;
15393;SDS011;7795;47.986;11.868;2022-07-29T04:22:13;2.10;;;1.77;;
15393;SDS011;7795;47.986;11.868;2022-07-29T04:24:39;1.20;;;1.10;;
15393;SDS011;7795;47.986;11.868;2022-07-29T04:27:05;4.20;;;1.83;;
15393;SDS011;7795;47.986;11.868;2022-07-29T04:29:31;1.73;;;1.50;;
15393;SDS011;7795;47.986;11.868;2022-07-29T04:31:58;1.57;;;1.47;;
15393;SDS011;7795;47.986;11.868;2022-07-29T04:34:23;2.70;;;1.20;;
15393;SDS011;7795;47.986;11.868;2022-07-29T04:36:49;1.30;;;1.20;;
15393;SDS011;7795;47.986;11.868;2022-07-29T04:39:15;2.10;;;1.30;;
15393;SDS011;7795;47.986;11.868;2022-07-29T04:41:43;1.43;;;1.20;;
15393;SDS011;7795;47.986;11.868;2022-07-29T04:44:08;3.17;;;1.53;;
15393;SDS011;7795;47.986;11.868;2022-07-29T04:46:34;2.30;;;1.47;;
15393;SDS011;7795;47.986;11.868;2022-07-29T04:49:02;1.97;;;1.50;;
15393;SDS011;7795;47.986;11.868;2022-07-29T04:51:28;1.70;;;1.60;;
15393;SDS011;7795;47.986;11.868;2022-07-29T04:53:54;1.67;;;1.57;;
15393;SDS011;7795;47.986;11.868;2022-07-29T04:56:19;2.40;;;1.40;;
15393;SDS011;7795;47.986;11.868;2022-07-29T04:58:45;2.50;;;1.50;;
15393;SDS011;7795;47.986;11.868;2022-07-29T05:01:11;2.33;;;1.70;;
15393;SDS011;7795;47.986;11.868;2022-07-29T05:03:37;2.17;;;1.80;;
15393;SDS011;7795;47.986;11.868;2022-07-29T05:06:04;2.30;;;1.67;;
15393;SDS011;7795;47.986;11.868;2022-07-29T05:08:30;1.90;;;1.47;;
15393;SDS011;7795;47.986;11.868;2022-07-29T05:10:56;4.53;;;1.73;;
15393;SDS011;7795;47.986;11.868;2022-07-29T05:13:21;2.00;;;1.53;;
15393;SDS011;7795;47.986;11.868;2022-07-29T05:15:47;3.97;;;1.77;;
15393;SDS011;7795;47.986;11.868;2022-07-29T05:18:13;3.37;;;1.80;;
15393;SDS011;7795;47.986;11.868;2022-07-29T05:20:39;2.23;;;1.60;;
15393;SDS011;7795;47.986;11.868;2022-07-29T05:23:06;1.63;;;1.40;;
15393;SDS011;7795;47.986;11.868;2022-07-29T05:25:32;2.47;;;2.00;;
15393;SDS011;7795;47.986;11.868;2022-07-29T05:27:58;1.97;;;1.80;;
15393;SDS011;7795;47.986;11.868;2022-07-29T05:30:24;2.37;;;1.50;;
15393;SDS011;7795;47.986;11.868;2022-07-29T05:32:50;2.23;;;2.03;;
15393;SDS011;7795;47.986;11.868;2022-07-29T05:35:16;2.87;;;1.60;;
15393;SDS011;7795;47.986;11.868;2022-07-29T05:37:42;2.03;;;1.50;;
15393;SDS011;7795;47.986;11.868;2022-07-29T05:40:09;1.63;;;1.47;;
15393;SDS011;7795;47.986;11.868;2022-07-29T05:42:35;1.83;;;1.60;;
15393;SDS011;7795;47.986;11.868;2022-07-29T05:45:01;2.20;;;1.30;;
15393;SDS011;7795;47.986;11.868;2022-07-29T05:47:28;3.73;;;1.80;;
15393;SDS011;7795;47.986;11.868;2022-07-29T05:49:53;2.13;;;1.70;;
15393;SDS011;7795;47.986;11.868;2022-07-29T05:52:19;1.93;;;1.50;;
15393;SDS011;7795;47.986;11.868;2022-07-29T05:54:45;1.80;;;1.50;;
15393;SDS011;7795;47.986;11.868;2022-07-29T05:57:16;2.07;;;1.80;;
15393;SDS011;7795;47.986;11.868;2022-07-29T05:59:42;4.43;;;1.97;;
15393;SDS011;7795;47.986;11.868;2022-07-29T06:02:08;1.93;;;1.80;;
15393;SDS011;7795;47.986;11.868;2022-07-29T06:04:34;1.87;;;1.77;;
15393;SDS011;7795;47.986;11.868;2022-07-29T06:06:59;1.60;;;1.50;;
15393;SDS011;7795;47.986;11.868;2022-07-29T06:09:26;3.80;;;1.70;;
15393;SDS011;7795;47.986;11.868;2022-07-29T06:11:52;1.67;;;1.50;;
15393;SDS011;7795;47.986;11.868;2022-07-29T06:14:20;3.00;;;1.50;;
15393;SDS011;7795;47.986;11.868;2022-07-29T06:16:45;2.93;;;1.73;;
15393;SDS011;7795;47.986;11.868;2022-07-29T06:19:11;2.00;;;1.63;;
15393;SDS011;7795;47.986;11.868;2022-07-29T06:21:40;4.53;;;1.80;;
15393;SDS011;7795;47.986;11.868;2022-07-29T06:24:06;1.90;;;1.70;;
15393;SDS011;7795;47.986;11.868;2022-07-29T06:26:33;3.07;;;2.07;;
15393;SDS011;7795;47.986;11.868;2022-07-29T06:28:59;2.40;;;2.00;;
15393;SDS011;7795;47.986;11.868;2022-07-29T06:31:26;3.47;;;1.80;;
15393;SDS011;7795;47.986;11.868;2022-07-29T06:33:51;1.70;;;1.60;;
15393;SDS011;7795;47.986;11.868;2022-07-29T06:36:17;1.87;;;1.70;;
15393;SDS011;7795;47.986;11.868;2022-07-29T06:38:43;2.60;;;1.80;;
15393;SDS011;7795;47.986;11.868;2022-07-29T06:41:09;1.67;;;1.57;;
15393;SDS011;7795;47.986;11.868;2022-07-29T06:43:38;2.17;;;1.57;;
15393;SDS011;7795;47.986;11.868;2022-07-29T06:46:06;2.73;;;1.83;;
15393;SDS011;7795;47.986;11.868;2022-07-29T06:48:35;2.00;;;1.80;;
15393;SDS011;7795;47.986;11.868;2022-07-29T06:51:01;4.27;;;3.43;;
15393;SDS011;7795;47.986;11.868;2022-07-29T06:53:28;2.93;;;2.07;;
15393;SDS011;7795;47.986;11.868;2022-07-29T06:55:54;2.87;;;1.63;;
15393;SDS011;7795;47.986;11.868;2022-07-29T06:58:20;2.57;;;1.47;;
15393;SDS011;7795;47.986;11.868;2022-07-29T07:00:46;2.15;;;1.52;;
15393;SDS011;7795;47.986;11.868;2022-07-29T07:03:12;1.92;;;1.70;;
15393;SDS011;7795;47.986;11.868;2022-07-29T07:05:39;1.83;;;1.42;;
15393;SDS011;7795;47.986;11.868;2022-07-29T07:08:05;2.00;;;1.43;;
15393;SDS011;7795;47.986;11.868;2022-07-29T07:10:32;2.40;;;1.48;;
15393;SDS011;7795;47.986;11.868;2022-07-29T07:12:58;3.27;;;1.83;;
15393;SDS011;7795;47.986;11.868;2022-07-29T07:15:24;2.20;;;1.17;;
15393;SDS011;7795;47.986;11.868;2022-07-29T07:17:50;3.17;;;1.30;;
15393;SDS011;7795;47.986;11.868;2022-07-29T07:20:16;2.27;;;1.50;;
15393;SDS011;7795;47.986;11.868;2022-07-29T07:22:43;1.30;;;1.20;;
15393;SDS011;7795;47.986;11.868;2022-07-29T07:25:09;2.88;;;1.83;;
15393;SDS011;7795;47.986;11.868;2022-07-29T07:27:35;2.10;;;1.55;;
15393;SDS011;7795;47.986;11.868;2022-07-29T07:30:02;1.65;;;1.33;;
15393;SDS011;7795;47.986;11.868;2022-07-29T07:32:28;2.15;;;1.50;;
15393;SDS011;7795;47.986;11.868;2022-07-29T07:34:54;2.67;;;1.50;;
15393;SDS011;7795;47.986;11.868;2022-07-29T07:37:20;1.98;;;1.30;;
15393;SDS011;7795;47.986;11.868;2022-07-29T07:39:47;2.40;;;1.33;;
15393;SDS011;7795;47.986;11.868;2022-07-29T07:42:13;2.28;;;1.60;;
15393;SDS011;7795;47.986;11.868;2022-07-29T07:44:38;2.42;;;1.58;;
15393;SDS011;7795;47.986;11.868;2022-07-29T07:47:04;3.42;;;1.30;;
15393;SDS011;7795;47.986;11.868;2022-07-29T07:49:30;1.40;;;1.30;;
15393;SDS011;7795;47.986;11.868;2022-07-29T07:51:56;1.55;;;1.27;;
15393;SDS011;7795;47.986;11.868;2022-07-29T07:54:22;2.03;;;1.50;;
15393;SDS011;7795;47.986;11.868;2022-07-29T07:56:49;2.78;;;1.48;;
15393;SDS011;7795;47.986;11.868;2022-07-29T07:59:15;2.08;;;1.50;;
15393;SDS011;7795;47.986;11.868;2022-07-29T08:01:40;1.70;;;1.60;;
15393;SDS011;7795;47.986;11.868;2022-07-29T08:04:06;3.22;;;1.35;;
15393;SDS011;7795;47.986;11.868;2022-07-29T08:06:32;2.92;;;1.33;;
15393;SDS011;7795;47.986;11.868;2022-07-29T08:08:59;1.92;;;1.10;;
15393;SDS011;7795;47.986;11.868;2022-07-29T08:11:25;1.83;;;1.50;;
15393;SDS011;7795;47.986;11.868;2022-07-29T08:13:52;1.38;;;1.27;;
15393;SDS011;7795;47.986;11.868;2022-07-29T08:16:18;2.58;;;1.38;;
15393;SDS011;7795;47.986;11.868;2022-07-29T08:18:44;2.22;;;1.60;;
15393;SDS011;7795;47.986;11.868;2022-07-29T08:21:11;1.73;;;1.33;;
15393;SDS011;7795;47.986;11.868;2022-07-29T08:23:37;1.50;;;1.38;;
15393;SDS011;7795;47.986;11.868;2022-07-29T08:26:04;1.70;;;1.33;;
15393;SDS011;7795;47.986;11.868;2022-07-29T08:28:30;2.95;;;1.38;;
15393;SDS011;7795;47.986;11.868;2022-07-29T08:30:57;1.30;;;1.20;;
15393;SDS011;7795;47.986;11.868;2022-07-29T08:33:23;1.40;;;1.30;;
15393;SDS011;7795;47.986;11.868;2022-07-29T08:35:49;1.42;;;1.33;;
15393;SDS011;7795;47.986;11.868;2022-07-29T08:38:15;1.50;;;1.33;;
15393;SDS011;7795;47.986;11.868;2022-07-29T08:40:41;1.52;;;1.20;;
15393;SDS011;7795;47.986;11.868;2022-07-29T08:43:07;1.00;;;1.00;;
15393;SDS011;7795;47.986;11.868;2022-07-29T08:45:36;1.45;;;1.35;;
15393;SDS011;7795;47.986;11.868;2022-07-29T08:48:08;2.42;;;1.67;;
15393;SDS011;7795;47.986;11.868;2022-07-29T08:50:34;1.30;;;1.15;;
15393;SDS011;7795;47.986;11.868;2022-07-29T08:53:01;1.85;;;1.10;;
15393;SDS011;7795;47.986;11.868;2022-07-29T08:55:28;1.63;;;1.30;;
15393;SDS011;7795;47.986;11.868;2022-07-29T08:57:55;3.03;;;1.40;;
15393;SDS011;7795;47.986;11.868;2022-07-29T09:00:21;1.58;;;1.30;;
15393;SDS011;7795;47.986;11.868;2022-07-29T09:02:50;1.23;;;1.13;;
15393;SDS011;7795;47.986;11.868;2022-07-29T09:05:22;2.83;;;1.20;;
15393;SDS011;7795;47.986;11.868;2022-07-29T09:07:48;3.33;;;1.52;;
15393;SDS011;7795;47.986;11.868;2022-07-29T09:10:15;1.13;;;1.00;;
15393;SDS011;7795;47.986;11.868;2022-07-29T09:12:41;1.40;;;1.08;;
15393;SDS011;7795;47.986;11.868;2022-07-29T09:15:07;2.35;;;1.65;;
15393;SDS011;7795;47.986;11.868;2022-07-29T09:17:40;2.67;;;1.20;;
15393;SDS011;7795;47.986;11.868;2022-07-29T09:20:10;1.73;;;1.10;;
15393;SDS011;7795;47.986;11.868;2022-07-29T09:22:38;1.75;;;1.00;;
15393;SDS011;7795;47.986;11.868;2022-07-29T09:25:04;1.45;;;1.23;;
15393;SDS011;7795;47.986;11.868;2022-07-29T09:27:31;1.67;;;1.20;;
15393;SDS011;7795;47.986;11.868;2022-07-29T09:29:57;1.92;;;1.10;;
15393;SDS011;7795;47.986;11.868;2022-07-29T09:32:24;2.08;;;1.00;;
15393;SDS011;7795;47.986;11.868;2022-07-29T09:34:51;0.90;;;0.90;;
15393;SDS011;7795;47.986;11.868;2022-07-29T09:37:42;3.00;;;1.25;;
15393;SDS011;7795;47.986;11.868;2022-07-29T09:40:11;1.90;;;1.00;;
15393;SDS011;7795;47.986;11.868;2022-07-29T09:42:38;1.80;;;1.23;;
15393;SDS011;7795;47.986;11.868;2022-07-29T09:45:04;1.38;;;1.27;;
15393;SDS011;7795;47.986;11.868;2022-07-29T09:47:40;1.20;;;1.10;;
15393;SDS011;7795;47.986;11.868;2022-07-29T09:50:07;1.60;;;1.17;;
15393;SDS011;7795;47.986;11.868;2022-07-29T09:52:41;2.42;;;1.30;;
15393;SDS011;7795;47.986;11.868;2022-07-29T09:55:12;2.22;;;1.20;;
15393;SDS011;7795;47.986;11.868;2022-07-29T09:57:39;1.20;;;1.10;;
15393;SDS011;7795;47.986;11.868;2022-07-29T10:00:05;1.55;;;1.38;;
15393;SDS011;7795;47.986;11.868;2022-07-29T10:02:36;1.30;;;1.20;;
15393;SDS011;7795;47.986;11.868;2022-07-29T10:05:05;1.73;;;1.45;;
15393;SDS011;7795;47.986;11.868;2022-07-29T10:07:44;2.80;;;1.60;;
15393;SDS011;7795;47.986;11.868;2022-07-29T10:10:18;1.52;;;1.20;;
15393;SDS011;7795;47.986;11.868;2022-07-29T10:12:48;2.10;;;1.38;;
15393;SDS011;7795;47.986;11.868;2022-07-29T10:15:16;4.88;;;1.33;;
15393;SDS011;7795;47.986;11.868;2022-07-29T10:17:42;1.75;;;1.13;;
15393;SDS011;7795;47.986;11.868;2022-07-29T10:20:09;1.58;;;1.48;;
15393;SDS011;7795;47.986;11.868;2022-07-29T10:22:35;1.67;;;1.25;;
15393;SDS011;7795;47.986;11.868;2022-07-29T10:25:03;1.73;;;1.52;;
15393;SDS011;7795;47.986;11.868;2022-07-29T10:27:29;1.52;;;1.27;;
15393;SDS011;7795;47.986;11.868;2022-07-29T10:29:55;1.75;;;1.23;;
15393;SDS011;7795;47.986;11.868;2022-07-29T10:32:24;1.40;;;1.15;;
15393;SDS011;7795;47.986;11.868;2022-07-29T10:38:07;1.55;;;1.23;;
15393;SDS011;7795;47.986;11.868;2022-07-29T10:40:49;1.30;;;1.20;;
15393;SDS011;7795;47.986;11.868;2022-07-29T10:43:42;1.40;;;1.20;;
15393;SDS011;7795;47.986;11.868;2022-07-29T10:46:11;1.52;;;1.20;;
15393;SDS011;7795;47.986;11.868;2022-07-29T10:48:49;2.03;;;1.38;;
15393;SDS011;7795;47.986;11.868;2022-07-29T10:54:38;2.17;;;1.50;;
15393;SDS011;7795;47.986;11.868;2022-07-29T10:57:15;1.20;;;1.10;;
15393;SDS011;7795;47.986;11.868;2022-07-29T10:59:45;2.13;;;1.48;;
15393;SDS011;7795;47.986;11.868;2022-07-29T11:05:07;1.48;;;1.10;;
15393;SDS011;7795;47.986;11.868;2022-07-29T11:07:35;1.75;;;1.20;;
15393;SDS011;7795;47.986;11.868;2022-07-29T11:10:24;1.70;;;1.50;;
15393;SDS011;7795;47.986;11.868;2022-07-29T11:12:51;2.83;;;1.45;;
15393;SDS011;7795;47.986;11.868;2022-07-29T11:15:18;2.30;;;1.60;;
15393;SDS011;7795;47.986;11.868;2022-07-29T11:20:38;1.63;;;1.42;;
15393;SDS011;7795;47.986;11.868;2022-07-29T11:23:20;1.85;;;1.40;;
15393;SDS011;7795;47.986;11.868;2022-07-29T11:28:57;1.33;;;1.23;;
15393;SDS011;7795;47.986;11.868;2022-07-29T11:31:37;1.45;;;1.20;;
15393;SDS011;7795;47.986;11.868;2022-07-29T11:39:43;1.45;;;1.30;;
15393;SDS011;7795;47.986;11.868;2022-07-29T11:45:05;2.20;;;1.10;;
15393;SDS011;7795;47.986;11.868;2022-07-29T11:47:32;1.60;;;1.30;;
15393;SDS011;7795;47.986;11.868;2022-07-29T11:50:00;1.15;;;1.05;;
15393;SDS011;7795;47.986;11.868;2022-07-29T11:52:31;1.92;;;1.30;;
15393;SDS011;7795;47.986;11.868;2022-07-29T11:54:58;1.95;;;1.45;;
15393;SDS011;7795;47.986;11.868;2022-07-29T11:57:27;1.60;;;1.50;;
15393;SDS011;7795;47.986;11.868;2022-07-29T11:59:53;1.40;;;1.30;;
15393;SDS011;7795;47.986;11.868;2022-07-29T12:02:24;1.77;;;1.52;;
15393;SDS011;7795;47.986;11.868;2022-07-29T12:04:50;4.63;;;1.30;;
15393;SDS011;7795;47.986;11.868;2022-07-29T12:07:16;2.97;;;1.20;;
15393;SDS011;7795;47.986;11.868;2022-07-29T12:09:49;3.50;;;1.17;;
15393;SDS011;7795;47.986;11.868;2022-07-29T12:12:15;3.90;;;1.88;;
15393;SDS011;7795;47.986;11.868;2022-07-29T12:14:42;2.25;;;1.40;;
15393;SDS011;7795;47.986;11.868;2022-07-29T12:17:13;2.40;;;1.30;;
15393;SDS011;7795;47.986;11.868;2022-07-29T12:19:54;1.77;;;1.20;;
15393;SDS011;7795;47.986;11.868;2022-07-29T12:22:24;1.40;;;1.10;;
15393;SDS011;7795;47.986;11.868;2022-07-29T12:24:50;1.27;;;1.17;;
15393;SDS011;7795;47.986;11.868;2022-07-29T12:27:16;2.28;;;1.30;;
15393;SDS011;7795;47.986;11.868;2022-07-29T12:29:42;1.83;;;1.20;;
15393;SDS011;7795;47.986;11.868;2022-07-29T12:32:08;3.35;;;1.88;;
15393;SDS011;7795;47.986;11.868;2022-07-29T12:34:35;1.40;;;0.90;;
15393;SDS011;7795;47.986;11.868;2022-07-29T12:37:01;1.55;;;1.38;;
15393;SDS011;7795;47.986;11.868;2022-07-29T12:39:28;1.77;;;1.20;;
15393;SDS011;7795;47.986;11.868;2022-07-29T12:41:54;2.42;;;1.10;;
15393;SDS011;7795;47.986;11.868;2022-07-29T12:44:20;1.42;;;1.10;;
15393;SDS011;7795;47.986;11.868;2022-07-29T12:46:45;3.45;;;1.27;;
15393;SDS011;7795;47.986;11.868;2022-07-29T12:49:26;1.70;;;1.17;;
15393;SDS011;7795;47.986;11.868;2022-07-29T12:51:53;3.63;;;1.10;;
15393;SDS011;7795;47.986;11.868;2022-07-29T12:54:19;2.50;;;1.52;;
15393;SDS011;7795;47.986;11.868;2022-07-29T12:56:45;1.60;;;1.50;;
15393;SDS011;7795;47.986;11.868;2022-07-29T12:59:11;1.85;;;1.20;;
15393;SDS011;7795;47.986;11.868;2022-07-29T13:01:38;2.45;;;1.38;;
15393;SDS011;7795;47.986;11.868;2022-07-29T13:04:04;1.70;;;1.60;;
15393;SDS011;7795;47.986;11.868;2022-07-29T13:06:31;1.30;;;1.20;;
15393;SDS011;7795;47.986;11.868;2022-07-29T13:09:00;1.30;;;1.20;;
15393;SDS011;7795;47.986;11.868;2022-07-29T13:11:28;2.00;;;1.60;;
15393;SDS011;7795;47.986;11.868;2022-07-29T13:13:55;4.45;;;1.50;;
15393;SDS011;7795;47.986;11.868;2022-07-29T13:16:20;1.70;;;1.15;;
15393;SDS011;7795;47.986;11.868;2022-07-29T13:18:46;1.88;;;1.15;;
15393;SDS011;7795;47.986;11.868;2022-07-29T13:21:12;1.85;;;1.13;;
15393;SDS011;7795;47.986;11.868;2022-07-29T13:23:39;1.33;;;1.20;;
15393;SDS011;7795;47.986;11.868;2022-07-29T13:26:07;1.92;;;1.10;;
15393;SDS011;7795;47.986;11.868;2022-07-29T13:28:33;1.63;;;1.20;;
15393;SDS011;7795;47.986;11.868;2022-07-29T13:30:59;1.15;;;1.05;;
15393;SDS011;7795;47.986;11.868;2022-07-29T13:33:25;2.08;;;1.13;;
15393;SDS011;7795;47.986;11.868;2022-07-29T13:35:50;1.30;;;1.20;;
15393;SDS011;7795;47.986;11.868;2022-07-29T13:38:16;1.80;;;1.00;;
15393;SDS011;7795;47.986;11.868;2022-07-29T13:40:42;1.42;;;1.30;;
15393;SDS011;7795;47.986;11.868;2022-07-29T13:43:09;1.10;;;0.90;;
15393;SDS011;7795;47.986;11.868;2022-07-29T13:45:35;1.13;;;0.80;;
15393;SDS011;7795;47.986;11.868;2022-07-29T13:48:02;1.23;;;1.10;;
15393;SDS011;7795;47.986;11.868;2022-07-29T13:50:28;1.25;;;1.15;;
15393;SDS011;7795;47.986;11.868;2022-07-29T13:52:53;2.53;;;0.98;;
15393;SDS011;7795;47.986;11.868;2022-07-29T13:55:19;3.03;;;1.10;;
15393;SDS011;7795;47.986;11.868;2022-07-29T13:57:45;1.17;;;1.00;;
15393;SDS011;7795;47.986;11.868;2022-07-29T14:00:13;2.40;;;1.08;;
15393;SDS011;7795;47.986;11.868;2022-07-29T14:02:40;1.25;;;1.00;;
15393;SDS011;7795;47.986;11.868;2022-07-29T14:05:06;1.30;;;0.95;;
15393;SDS011;7795;47.986;11.868;2022-07-29T14:07:32;2.05;;;1.05;;
15393;SDS011;7795;47.986;11.868;2022-07-29T14:09:58;0.80;;;0.80;;
15393;SDS011;7795;47.986;11.868;2022-07-29T14:12:24;0.73;;;0.73;;
15393;SDS011;7795;47.986;11.868;2022-07-29T14:14:50;0.90;;;0.90;;
15393;SDS011;7795;47.986;11.868;2022-07-29T14:17:17;1.55;;;0.95;;
15393;SDS011;7795;47.986;11.868;2022-07-29T14:19:43;2.25;;;0.90;;
15393;SDS011;7795;47.986;11.868;2022-07-29T14:22:09;0.73;;;0.70;;
15393;SDS011;7795;47.986;11.868;2022-07-29T14:24:35;2.58;;;1.35;;
15393;SDS011;7795;47.986;11.868;2022-07-29T14:27:01;1.25;;;0.90;;
15393;SDS011;7795;47.986;11.868;2022-07-29T14:29:27;2.17;;;1.00;;
15393;SDS011;7795;47.986;11.868;2022-07-29T14:31:52;1.63;;;1.10;;
15393;SDS011;7795;47.986;11.868;2022-07-29T14:34:20;2.65;;;1.05;;
15393;SDS011;7795;47.986;11.868;2022-07-29T14:36:46;2.47;;;0.98;;
15393;SDS011;7795;47.986;11.868;2022-07-29T14:39:12;2.85;;;1.35;;
15393;SDS011;7795;47.986;11.868;2022-07-29T14:41:37;3.08;;;1.48;;
15393;SDS011;7795;47.986;11.868;2022-07-29T14:44:03;1.42;;;1.33;;
15393;SDS011;7795;47.986;11.868;2022-07-29T14:46:29;2.75;;;1.20;;
15393;SDS011;7795;47.986;11.868;2022-07-29T14:48:55;1.10;;;1.02;;
15393;SDS011;7795;47.986;11.868;2022-07-29T14:51:22;1.90;;;1.25;;
15393;SDS011;7795;47.986;11.868;2022-07-29T14:53:48;1.65;;;0.85;;
15393;SDS011;7795;47.986;11.868;2022-07-29T14:56:14;1.65;;;1.10;;
15393;SDS011;7795;47.986;11.868;2022-07-29T14:58:40;1.65;;;1.20;;
15393;SDS011;7795;47.986;11.868;2022-07-29T15:01:05;1.50;;;1.40;;
15393;SDS011;7795;47.986;11.868;2022-07-29T15:03:33;2.53;;;1.38;;
15393;SDS011;7795;47.986;11.868;2022-07-29T15:05:59;1.30;;;1.02;;
15393;SDS011;7795;47.986;11.868;2022-07-29T15:08:26;1.20;;;1.00;;
15393;SDS011;7795;47.986;11.868;2022-07-29T15:10:54;1.33;;;1.20;;
15393;SDS011;7795;47.986;11.868;2022-07-29T15:13:22;1.65;;;1.17;;
15393;SDS011;7795;47.986;11.868;2022-07-29T15:15:48;2.83;;;1.23;;
15393;SDS011;7795;47.986;11.868;2022-07-29T15:18:14;2.13;;;1.00;;